createdAt,value
2016-12-03T00:01:03.863Z,12
2016-12-03T00:02:14.186Z,12
2016-12-03T00:03:24.515Z,16
2016-12-03T00:04:34.852Z,16
2016-12-03T00:05:45.206Z,12
2016-12-03T00:06:55.754Z,16
2016-12-03T00:08:06.071Z,12
2016-12-03T00:09:16.402Z,12
2016-12-03T00:10:26.740Z,12
2016-12-03T00:11:37.060Z,12
2016-12-03T00:12:47.372Z,12
2016-12-03T00:13:57.701Z,12
2016-12-03T00:15:08.054Z,12
2016-12-03T00:16:18.432Z,12
2016-12-03T00:17:28.752Z,12
2016-12-03T00:18:39.301Z,12
2016-12-03T00:19:49.641Z,12
2016-12-03T00:21:14.622Z,12
2016-12-03T00:22:39.604Z,12
2016-12-03T00:23:50.034Z,16
2016-12-03T00:25:00.563Z,12
2016-12-03T00:26:11.127Z,12
2016-12-03T00:27:21.672Z,12
2016-12-03T00:28:32.747Z,12
2016-12-03T00:29:43.518Z,12
2016-12-03T00:30:54.072Z,16
2016-12-03T00:32:04.622Z,12
2016-12-03T00:33:15.673Z,12
2016-12-03T00:34:40.747Z,16
2016-12-03T00:35:51.504Z,16
2016-12-03T00:37:02.103Z,12
2016-12-03T00:38:27.193Z,16
2016-12-03T00:39:37.741Z,12
2016-12-03T00:40:48.481Z,12
2016-12-03T00:41:59.045Z,12
2016-12-03T00:44:34.710Z,12
2016-12-03T00:46:00.024Z,16
2016-12-03T00:47:10.583Z,16
2016-12-03T00:48:21.146Z,16
2016-12-03T00:49:31.725Z,16
2016-12-03T00:50:42.299Z,16
2016-12-03T00:51:52.856Z,12
2016-12-03T00:53:03.418Z,12
2016-12-03T00:54:13.969Z,12
2016-12-03T00:55:24.524Z,12
2016-12-03T00:56:35.067Z,12
2016-12-03T00:57:45.833Z,12
2016-12-03T00:58:56.374Z,12
2016-12-03T01:00:06.935Z,12
2016-12-03T01:01:17.506Z,12
2016-12-03T01:02:28.265Z,12
2016-12-03T01:03:39.018Z,12
2016-12-03T01:04:49.568Z,12
2016-12-03T01:06:14.650Z,12
2016-12-03T01:07:25.190Z,12
2016-12-03T01:08:35.936Z,12
2016-12-03T01:09:46.486Z,12
2016-12-03T01:10:57.045Z,12
2016-12-03T01:12:07.597Z,12
2016-12-03T01:13:18.166Z,12
2016-12-03T01:14:28.944Z,12
2016-12-03T01:15:39.485Z,12
2016-12-03T01:17:04.583Z,12
2016-12-03T01:18:15.140Z,12
2016-12-03T01:19:25.695Z,12
2016-12-03T01:20:36.265Z,12
2016-12-03T01:21:46.807Z,12
2016-12-03T01:22:57.365Z,12
2016-12-03T01:24:07.924Z,12
2016-12-03T01:25:18.472Z,12
2016-12-03T01:26:29.010Z,12
2016-12-03T01:27:39.582Z,12
2016-12-03T01:28:50.130Z,12
2016-12-03T01:30:00.672Z,12
2016-12-03T01:31:11.924Z,12
2016-12-03T01:32:22.481Z,4
2016-12-03T01:33:33.024Z,12
2016-12-03T01:34:43.571Z,12
2016-12-03T01:35:54.115Z,12
2016-12-03T01:37:04.873Z,12
2016-12-03T01:38:15.447Z,12
2016-12-03T01:39:25.990Z,12
2016-12-03T01:40:36.567Z,12
2016-12-03T01:41:47.124Z,12
2016-12-03T01:42:57.886Z,12
2016-12-03T01:44:08.449Z,12
2016-12-03T01:45:18.993Z,12
2016-12-03T01:46:29.537Z,12
2016-12-03T01:47:40.090Z,12
2016-12-03T01:48:50.839Z,4
2016-12-03T01:50:01.363Z,16
2016-12-03T01:51:11.833Z,12
2016-12-03T01:52:22.801Z,12
2016-12-03T01:53:33.289Z,12
2016-12-03T01:54:43.949Z,12
2016-12-03T01:55:54.403Z,12
2016-12-03T01:57:04.872Z,12
2016-12-03T01:58:15.854Z,12
2016-12-03T01:59:26.320Z,12
2016-12-03T02:00:36.991Z,12
2016-12-03T02:01:47.490Z,12
2016-12-03T02:02:57.958Z,12
2016-12-03T02:04:08.618Z,12
2016-12-03T02:05:19.090Z,12
2016-12-03T02:06:29.558Z,12
2016-12-03T02:07:40.035Z,4
2016-12-03T02:08:50.479Z,12
2016-12-03T02:10:00.877Z,12
2016-12-03T02:11:11.240Z,12
2016-12-03T02:12:21.610Z,12
2016-12-03T02:13:32.421Z,12
2016-12-03T02:14:42.770Z,12
2016-12-03T02:15:53.130Z,12
2016-12-03T02:17:18.039Z,12
2016-12-03T02:18:28.405Z,4
2016-12-03T02:19:38.753Z,12
2016-12-03T02:20:49.090Z,12
2016-12-03T02:21:59.463Z,12
2016-12-03T02:23:09.863Z,12
2016-12-03T02:24:20.199Z,12
2016-12-03T02:25:30.556Z,12
2016-12-03T02:26:40.902Z,12
2016-12-03T02:27:51.260Z,12
2016-12-03T02:29:02.086Z,8
2016-12-03T02:30:12.454Z,16
2016-12-03T02:31:22.805Z,12
2016-12-03T02:32:47.708Z,12
2016-12-03T02:33:58.043Z,12
2016-12-03T02:35:08.384Z,4
2016-12-03T02:36:18.729Z,16
2016-12-03T02:37:29.084Z,12
2016-12-03T02:38:39.439Z,12
2016-12-03T02:39:49.975Z,12
2016-12-03T02:41:00.831Z,12
2016-12-03T02:42:11.177Z,12
2016-12-03T02:43:21.621Z,12
2016-12-03T02:44:32.112Z,12
2016-12-03T02:45:42.594Z,4
2016-12-03T02:46:53.071Z,12
2016-12-03T02:48:03.535Z,12
2016-12-03T02:49:14.005Z,12
2016-12-03T02:50:24.505Z,12
2016-12-03T02:51:34.959Z,12
2016-12-03T02:52:45.437Z,4
2016-12-03T02:54:10.443Z,12
2016-12-03T02:55:20.914Z,12
2016-12-03T02:56:31.416Z,12
2016-12-03T02:57:42.596Z,12
2016-12-03T02:58:53.042Z,12
2016-12-03T03:00:03.499Z,4
2016-12-03T03:01:28.513Z,12
2016-12-03T03:02:38.986Z,12
2016-12-03T03:03:49.473Z,12
2016-12-03T03:04:59.945Z,12
2016-12-03T03:06:10.404Z,12
2016-12-03T03:07:20.863Z,12
2016-12-03T03:08:31.349Z,12
2016-12-03T03:09:41.792Z,12
2016-12-03T03:10:52.256Z,12
2016-12-03T03:12:02.721Z,12
2016-12-03T03:13:13.696Z,12
2016-12-03T03:14:24.199Z,12
2016-12-03T03:15:34.669Z,12
2016-12-03T03:16:45.148Z,12
2016-12-03T03:18:10.348Z,12
2016-12-03T03:19:20.816Z,12
2016-12-03T03:20:31.290Z,12
2016-12-03T03:21:41.763Z,12
2016-12-03T03:22:52.231Z,12
2016-12-03T03:24:17.222Z,12
2016-12-03T03:25:27.678Z,12
2016-12-03T03:26:38.165Z,12
2016-12-03T03:27:48.624Z,12
2016-12-03T03:28:59.115Z,12
2016-12-03T03:30:09.591Z,12
2016-12-03T03:31:34.589Z,12
2016-12-03T03:32:45.044Z,12
2016-12-03T03:33:55.984Z,12
2016-12-03T03:35:06.446Z,12
2016-12-03T03:36:17.391Z,12
2016-12-03T03:37:27.836Z,12
2016-12-03T03:38:38.297Z,12
2016-12-03T03:39:48.770Z,12
2016-12-03T03:40:59.218Z,12
2016-12-03T03:44:59.686Z,12
2016-12-03T03:46:10.166Z,12
2016-12-03T03:47:20.632Z,12
2016-12-03T03:48:31.097Z,12
2016-12-03T03:51:06.847Z,12
2016-12-03T03:52:17.291Z,12
2016-12-03T03:53:27.751Z,12
2016-12-03T03:54:38.244Z,12
2016-12-03T03:55:48.907Z,12
2016-12-03T03:57:13.929Z,12
2016-12-03T03:58:24.385Z,12
2016-12-03T03:59:34.866Z,12
2016-12-03T04:00:45.539Z,12
2016-12-03T04:01:56.016Z,12
2016-12-03T04:03:06.489Z,12
2016-12-03T04:04:31.503Z,12
2016-12-03T04:05:42.055Z,12
2016-12-03T04:06:52.621Z,12
2016-12-03T04:08:03.148Z,12
2016-12-03T04:09:13.704Z,12
2016-12-03T04:10:24.279Z,12
2016-12-03T04:11:35.029Z,12
2016-12-03T04:12:45.577Z,12
2016-12-03T04:13:56.120Z,12
2016-12-03T04:15:06.675Z,12
2016-12-03T04:16:17.225Z,12
2016-12-03T04:17:27.774Z,12
2016-12-03T04:18:38.306Z,12
2016-12-03T04:19:48.836Z,12
2016-12-03T04:20:59.368Z,12
2016-12-03T04:22:09.913Z,12
2016-12-03T04:23:20.440Z,12
2016-12-03T04:24:30.983Z,12
2016-12-03T04:25:41.511Z,12
2016-12-03T04:26:52.054Z,12
2016-12-03T04:28:02.587Z,12
2016-12-03T04:29:13.813Z,12
2016-12-03T04:30:24.876Z,12
2016-12-03T04:31:35.412Z,12
2016-12-03T04:32:45.946Z,12
2016-12-03T04:33:56.479Z,12
2016-12-03T04:35:07.218Z,12
2016-12-03T04:36:17.741Z,12
2016-12-03T04:37:28.280Z,12
2016-12-03T04:38:38.810Z,12
2016-12-03T04:39:49.342Z,12
2016-12-03T04:41:00.071Z,12
2016-12-03T04:42:25.126Z,12
2016-12-03T04:43:35.650Z,12
2016-12-03T04:44:46.212Z,12
2016-12-03T04:45:56.738Z,12
2016-12-03T04:47:07.264Z,12
2016-12-03T04:48:17.811Z,12
2016-12-03T04:49:28.341Z,12
2016-12-03T04:50:38.790Z,12
2016-12-03T04:51:49.420Z,12
2016-12-03T04:52:59.886Z,12
2016-12-03T04:54:10.317Z,12
2016-12-03T04:55:20.753Z,12
2016-12-03T04:56:31.185Z,12
2016-12-03T04:57:41.817Z,12
2016-12-03T04:59:06.797Z,12
2016-12-03T05:00:17.224Z,12
2016-12-03T05:01:27.664Z,12
2016-12-03T05:02:38.099Z,12
2016-12-03T05:03:48.528Z,12
2016-12-03T05:04:59.446Z,12
2016-12-03T05:06:09.877Z,12
2016-12-03T05:07:20.315Z,12
2016-12-03T05:08:30.955Z,12
2016-12-03T05:09:41.385Z,12
2016-12-03T05:12:16.794Z,12
2016-12-03T05:13:27.430Z,12
2016-12-03T05:14:37.861Z,12
2016-12-03T05:15:48.293Z,12
2016-12-03T05:16:58.725Z,12
2016-12-03T05:18:09.163Z,12
2016-12-03T05:19:20.279Z,12
2016-12-03T05:20:30.709Z,12
2016-12-03T05:21:41.149Z,12
2016-12-03T05:22:51.584Z,12
2016-12-03T05:24:02.011Z,12
2016-12-03T05:25:12.446Z,12
2016-12-03T05:26:22.873Z,12
2016-12-03T05:27:33.316Z,12
2016-12-03T05:28:58.290Z,12
2016-12-03T05:30:08.725Z,12
2016-12-03T05:31:19.162Z,12
2016-12-03T05:32:29.597Z,12
2016-12-03T05:33:40.026Z,12
2016-12-03T05:34:50.494Z,12
2016-12-03T05:36:01.222Z,12
2016-12-03T05:37:11.743Z,12
2016-12-03T05:38:22.305Z,12
2016-12-03T05:39:32.834Z,12
2016-12-03T05:40:43.360Z,12
2016-12-03T05:41:53.888Z,12
2016-12-03T05:43:04.411Z,12
2016-12-03T05:44:14.934Z,16
2016-12-03T05:45:25.460Z,12
2016-12-03T05:46:35.984Z,12
2016-12-03T05:47:46.506Z,12
2016-12-03T05:48:57.031Z,12
2016-12-03T05:50:07.557Z,12
2016-12-03T05:51:18.079Z,12
2016-12-03T05:52:28.603Z,12
2016-12-03T05:53:39.328Z,12
2016-12-03T05:54:49.852Z,12
2016-12-03T05:56:00.379Z,12
2016-12-03T05:57:10.904Z,12
2016-12-03T05:58:21.445Z,12
2016-12-03T05:59:32.167Z,12
2016-12-03T06:00:42.693Z,12
2016-12-03T06:01:53.216Z,12
2016-12-03T06:03:18.270Z,12
2016-12-03T06:04:28.995Z,12
2016-12-03T06:05:39.519Z,12
2016-12-03T06:06:50.047Z,12
2016-12-03T06:08:00.568Z,12
2016-12-03T06:09:11.096Z,12
2016-12-03T06:10:21.824Z,12
2016-12-03T06:11:32.346Z,12
2016-12-03T06:12:42.868Z,12
2016-12-03T06:13:53.394Z,12
2016-12-03T06:16:29.167Z,12
2016-12-03T06:17:39.693Z,12
2016-12-03T06:18:50.217Z,12
2016-12-03T06:20:15.273Z,12
2016-12-03T06:21:25.799Z,12
2016-12-03T06:22:36.327Z,12
2016-12-03T06:23:46.854Z,12
2016-12-03T06:24:57.382Z,12
2016-12-03T06:26:07.937Z,12
2016-12-03T06:27:18.489Z,12
2016-12-03T06:28:29.016Z,12
2016-12-03T06:29:39.547Z,12
2016-12-03T06:30:50.073Z,12
2016-12-03T06:32:15.353Z,12
2016-12-03T06:33:25.877Z,12
2016-12-03T06:34:36.402Z,12
2016-12-03T06:35:46.928Z,12
2016-12-03T06:36:57.459Z,12
2016-12-03T06:38:07.987Z,12
2016-12-03T06:39:18.517Z,12
2016-12-03T06:40:29.043Z,12
2016-12-03T06:41:39.571Z,12
2016-12-03T06:42:50.094Z,12
2016-12-03T06:44:00.622Z,12
2016-12-03T06:45:11.146Z,12
2016-12-03T06:46:21.673Z,12
2016-12-03T06:47:32.198Z,12
2016-12-03T06:48:42.727Z,12
2016-12-03T06:49:53.260Z,12
2016-12-03T06:51:03.788Z,12
2016-12-03T06:52:14.310Z,12
2016-12-03T06:53:24.834Z,12
2016-12-03T06:54:35.361Z,12
2016-12-03T06:55:46.089Z,12
2016-12-03T06:56:56.616Z,12
2016-12-03T06:58:21.670Z,12
2016-12-03T06:59:32.197Z,12
2016-12-03T07:00:42.929Z,12
2016-12-03T07:01:53.456Z,12
2016-12-03T07:03:03.982Z,12
2016-12-03T07:04:14.509Z,12
2016-12-03T07:05:24.969Z,12
2016-12-03T07:06:35.408Z,12
2016-12-03T07:07:45.840Z,12
2016-12-03T07:08:56.277Z,12
2016-12-03T07:10:06.712Z,12
2016-12-03T07:11:17.142Z,12
2016-12-03T07:12:27.775Z,12
2016-12-03T07:13:38.204Z,12
2016-12-03T07:14:48.632Z,12
2016-12-03T07:15:59.066Z,8
2016-12-03T07:17:09.496Z,4
2016-12-03T07:18:20.131Z,12
2016-12-03T07:19:30.563Z,12
2016-12-03T07:20:40.991Z,12
2016-12-03T07:21:51.422Z,12
2016-12-03T07:23:01.853Z,12
2016-12-03T07:24:12.481Z,12
2016-12-03T07:25:22.916Z,12
2016-12-03T07:26:33.380Z,12
2016-12-03T07:27:43.810Z,12
2016-12-03T07:28:54.247Z,12
2016-12-03T07:30:04.680Z,12
2016-12-03T07:31:15.113Z,12
2016-12-03T07:34:05.069Z,12
2016-12-03T07:35:15.697Z,12
2016-12-03T07:36:26.126Z,12
2016-12-03T07:37:36.561Z,12
2016-12-03T07:38:46.993Z,12
2016-12-03T07:39:57.427Z,12
2016-12-03T07:41:07.861Z,12
2016-12-03T07:42:18.293Z,4
2016-12-03T07:43:28.721Z,12
2016-12-03T07:44:39.154Z,12
2016-12-03T07:45:49.613Z,12
2016-12-03T07:47:00.039Z,12
2016-12-03T07:48:10.480Z,12
2016-12-03T07:49:20.913Z,12
2016-12-03T07:51:56.466Z,16
2016-12-03T07:53:06.995Z,16
2016-12-03T07:54:18.022Z,16
2016-12-03T07:55:28.570Z,12
2016-12-03T07:56:39.093Z,12
2016-12-03T07:57:49.619Z,12
2016-12-03T07:59:00.143Z,16
2016-12-03T08:00:10.697Z,16
2016-12-03T08:01:21.256Z,16
2016-12-03T08:02:31.780Z,16
2016-12-03T08:03:42.505Z,16
2016-12-03T08:04:53.030Z,20
2016-12-03T08:06:18.082Z,20
2016-12-03T08:07:28.607Z,20
2016-12-03T08:08:53.655Z,24
2016-12-03T08:10:04.176Z,24
2016-12-03T08:11:14.708Z,24
2016-12-03T08:12:25.239Z,24
2016-12-03T08:13:35.765Z,28
2016-12-03T08:14:46.491Z,32
2016-12-03T08:15:57.016Z,20
2016-12-03T08:17:07.540Z,20
2016-12-03T08:18:18.561Z,28
2016-12-03T08:19:29.087Z,32
2016-12-03T08:20:40.313Z,36
2016-12-03T08:21:50.845Z,44
2016-12-03T08:23:01.873Z,48
2016-12-03T08:24:12.401Z,52
2016-12-03T08:25:22.933Z,60
2016-12-03T08:26:33.655Z,68
2016-12-03T08:27:44.183Z,72
2016-12-03T08:28:54.705Z,80
2016-12-03T08:30:05.233Z,88
2016-12-03T08:31:15.677Z,92
2016-12-03T08:32:26.086Z,96
2016-12-03T08:33:36.491Z,104
2016-12-03T08:34:47.384Z,108
2016-12-03T08:35:57.789Z,112
2016-12-03T08:37:08.198Z,112
2016-12-03T08:38:18.802Z,116
2016-12-03T08:39:29.210Z,120
2016-12-03T08:40:54.181Z,128
2016-12-03T08:42:04.587Z,128
2016-12-03T08:43:29.548Z,132
2016-12-03T08:44:39.953Z,140
2016-12-03T08:45:50.362Z,144
2016-12-03T08:47:00.770Z,148
2016-12-03T08:48:11.177Z,160
2016-12-03T08:49:21.583Z,164
2016-12-03T08:50:31.987Z,172
2016-12-03T08:51:42.397Z,184
2016-12-03T08:52:52.802Z,192
2016-12-03T08:54:03.205Z,200
2016-12-03T08:55:28.365Z,208
2016-12-03T08:56:38.774Z,216
2016-12-03T08:57:49.177Z,228
2016-12-03T08:58:59.582Z,236
2016-12-03T09:00:10.291Z,244
2016-12-03T09:01:20.698Z,256
2016-12-03T09:02:31.105Z,260
2016-12-03T09:03:41.508Z,272
2016-12-03T09:04:51.913Z,276
2016-12-03T09:06:02.405Z,284
2016-12-03T09:07:12.928Z,296
2016-12-03T09:08:23.452Z,304
2016-12-03T09:09:33.977Z,316
2016-12-03T09:10:44.501Z,320
2016-12-03T09:11:55.226Z,332
2016-12-03T09:13:05.752Z,344
2016-12-03T09:14:16.276Z,356
2016-12-03T09:15:26.803Z,372
2016-12-03T09:16:37.356Z,388
2016-12-03T09:17:47.879Z,408
2016-12-03T09:19:12.942Z,432
2016-12-03T09:20:23.466Z,448
2016-12-03T09:21:34.023Z,464
2016-12-03T09:22:44.748Z,488
2016-12-03T09:23:55.275Z,504
2016-12-03T09:25:05.825Z,520
2016-12-03T09:26:16.354Z,540
2016-12-03T09:27:26.875Z,556
2016-12-03T09:28:37.630Z,572
2016-12-03T09:29:48.153Z,592
2016-12-03T09:30:58.690Z,612
2016-12-03T09:32:09.221Z,632
2016-12-03T09:33:20.249Z,656
2016-12-03T09:34:31.283Z,680
2016-12-03T09:35:41.804Z,708
2016-12-03T09:36:52.330Z,732
2016-12-03T09:38:02.857Z,772
2016-12-03T09:39:13.380Z,812
2016-12-03T09:40:23.903Z,860
2016-12-03T09:41:34.428Z,892
2016-12-03T09:42:44.959Z,960
2016-12-03T09:43:55.485Z,1052
2016-12-03T09:45:06.008Z,1164
2016-12-03T09:46:16.739Z,1248
2016-12-03T09:47:27.266Z,1320
2016-12-03T09:48:37.797Z,1384
2016-12-03T09:49:48.322Z,1432
2016-12-03T09:52:24.202Z,1476
2016-12-03T09:53:34.729Z,1460
2016-12-03T09:54:45.256Z,1500
2016-12-03T09:55:55.804Z,1524
2016-12-03T09:57:06.328Z,1572
2016-12-03T09:58:16.852Z,1556
2016-12-03T09:59:27.377Z,1504
2016-12-03T10:00:37.908Z,1400
2016-12-03T10:01:48.934Z,1324
2016-12-03T10:02:59.760Z,1328
2016-12-03T10:05:50.365Z,1324
2016-12-03T10:07:00.892Z,1300
2016-12-03T10:08:11.621Z,1312
2016-12-03T10:09:22.151Z,1320
2016-12-03T10:10:32.686Z,1356
2016-12-03T10:11:43.209Z,1360
2016-12-03T10:12:53.736Z,1376
2016-12-03T10:14:04.459Z,1440
2016-12-03T10:15:15.388Z,1516
2016-12-03T10:16:25.799Z,1528
2016-12-03T10:17:36.211Z,1460
2016-12-03T10:18:46.618Z,1444
2016-12-03T10:19:57.229Z,1428
2016-12-03T10:21:07.638Z,1440
2016-12-03T10:22:18.045Z,1440
2016-12-03T10:23:28.452Z,1432
2016-12-03T10:24:38.888Z,1416
2016-12-03T10:25:49.493Z,1352
2016-12-03T10:26:59.911Z,1348
2016-12-03T10:28:10.338Z,1316
2016-12-03T10:29:20.743Z,1296
2016-12-03T10:30:31.176Z,1364
2016-12-03T10:33:06.542Z,1488
2016-12-03T10:34:16.948Z,1576
2016-12-03T10:35:27.361Z,1528
2016-12-03T10:36:37.765Z,1484
2016-12-03T10:37:48.177Z,1480
2016-12-03T10:38:58.588Z,1472
2016-12-03T10:40:08.995Z,1488
2016-12-03T10:41:19.430Z,1448
2016-12-03T10:42:30.038Z,1460
2016-12-03T10:43:40.446Z,1460
2016-12-03T10:44:50.860Z,1480
2016-12-03T10:46:01.271Z,1460
2016-12-03T10:47:11.679Z,1420
2016-12-03T10:48:22.295Z,1420
2016-12-03T10:49:32.702Z,1388
2016-12-03T10:50:43.112Z,1336
2016-12-03T10:51:54.003Z,1364
2016-12-03T10:53:04.411Z,1364
2016-12-03T10:54:14.814Z,1364
2016-12-03T10:55:25.706Z,1420
2016-12-03T10:56:36.112Z,1356
2016-12-03T10:57:46.523Z,1388
2016-12-03T10:58:56.929Z,1472
2016-12-03T11:00:07.537Z,1468
2016-12-03T11:01:17.947Z,1528
2016-12-03T11:02:42.907Z,1532
2016-12-03T11:03:53.348Z,1536
2016-12-03T11:05:03.961Z,1572
2016-12-03T11:06:14.374Z,1472
2016-12-03T11:07:24.777Z,1620
2016-12-03T11:08:35.195Z,1588
2016-12-03T11:09:45.606Z,1548
2016-12-03T11:10:56.216Z,1596
2016-12-03T11:12:21.202Z,1712
2016-12-03T11:13:31.608Z,1696
2016-12-03T11:14:42.015Z,1772
2016-12-03T11:15:52.624Z,1852
2016-12-03T11:17:03.033Z,1960
2016-12-03T11:18:13.442Z,2008
2016-12-03T11:19:23.848Z,2088
2016-12-03T11:20:34.258Z,2212
2016-12-03T11:21:44.866Z,2192
2016-12-03T11:22:55.273Z,2272
2016-12-03T11:24:05.681Z,2000
2016-12-03T11:25:16.090Z,1704
2016-12-03T11:26:41.247Z,1380
2016-12-03T11:27:51.655Z,1480
2016-12-03T11:29:02.063Z,1504
2016-12-03T11:30:12.473Z,1736
2016-12-03T11:31:22.882Z,1700
2016-12-03T11:32:33.489Z,1968
2016-12-03T11:33:43.902Z,2220
2016-12-03T11:36:19.134Z,1820
2016-12-03T11:37:44.018Z,1912
2016-12-03T11:38:54.338Z,1660
2016-12-03T11:40:04.663Z,1488
2016-12-03T11:41:14.987Z,1808
2016-12-03T11:42:25.303Z,1728
2016-12-03T11:43:35.622Z,2284
2016-12-03T11:45:00.507Z,2660
2016-12-03T11:46:11.304Z,2500
2016-12-03T11:47:21.619Z,2668
2016-12-03T11:48:32.144Z,2472
2016-12-03T11:49:42.469Z,2316
2016-12-03T11:50:52.788Z,2456
2016-12-03T11:52:03.109Z,2620
2016-12-03T11:54:38.513Z,2836
2016-12-03T11:55:48.834Z,2984
2016-12-03T11:56:59.149Z,3012
2016-12-03T11:58:09.485Z,2588
2016-12-03T11:59:19.800Z,2240
2016-12-03T12:00:30.119Z,2456
2016-12-03T12:01:40.435Z,2944
2016-12-03T12:02:51.257Z,3172
2016-12-03T12:04:01.576Z,3248
2016-12-03T12:05:11.894Z,3504
2016-12-03T12:06:22.245Z,3564
2016-12-03T12:07:33.052Z,2568
2016-12-03T12:08:43.370Z,2896
2016-12-03T12:09:53.689Z,1816
2016-12-03T12:11:04.007Z,1944
2016-12-03T12:12:14.332Z,2500
2016-12-03T12:13:24.651Z,3528
2016-12-03T12:14:34.970Z,2568
2016-12-03T12:15:45.287Z,2536
2016-12-03T12:16:55.615Z,2372
2016-12-03T12:18:05.934Z,2252
2016-12-03T12:19:30.829Z,2192
2016-12-03T12:20:41.147Z,2184
2016-12-03T12:21:51.666Z,2136
2016-12-03T12:23:01.989Z,2176
2016-12-03T12:24:12.785Z,2156
2016-12-03T12:25:23.104Z,2228
2016-12-03T12:26:33.902Z,2472
2016-12-03T12:27:44.418Z,2896
2016-12-03T12:28:54.742Z,2716
2016-12-03T12:30:05.061Z,2692
2016-12-03T12:31:15.382Z,2460
2016-12-03T12:32:25.704Z,2252
2016-12-03T12:33:36.024Z,2088
2016-12-03T12:34:46.348Z,1752
2016-12-03T12:35:56.667Z,1664
2016-12-03T12:37:07.011Z,1584
2016-12-03T12:38:17.331Z,1772
2016-12-03T12:39:27.854Z,1908
2016-12-03T12:40:38.181Z,2184
2016-12-03T12:42:03.077Z,2492
2016-12-03T12:43:13.400Z,2460
2016-12-03T12:44:23.923Z,2124
2016-12-03T12:45:34.241Z,1900
2016-12-03T12:46:44.564Z,1844
2016-12-03T12:47:54.887Z,2036
2016-12-03T12:49:19.786Z,2428
2016-12-03T12:50:44.880Z,2572
2016-12-03T12:51:55.202Z,2328
2016-12-03T12:53:05.530Z,2648
2016-12-03T12:54:15.848Z,2800
2016-12-03T12:55:26.171Z,3696
2016-12-03T12:56:36.492Z,3728
2016-12-03T12:57:46.811Z,3748
2016-12-03T12:58:57.127Z,2860
2016-12-03T13:00:07.457Z,3416
2016-12-03T13:01:17.782Z,3692
2016-12-03T13:02:28.101Z,3140
2016-12-03T13:03:38.419Z,3336
2016-12-03T13:04:48.741Z,3604
2016-12-03T13:06:13.838Z,3848
2016-12-03T13:07:24.162Z,3800
2016-12-03T13:08:34.561Z,3964
2016-12-03T13:09:45.001Z,4044
2016-12-03T13:10:55.476Z,3496
2016-12-03T13:12:20.466Z,3572
2016-12-03T13:13:30.905Z,2392
2016-12-03T13:14:41.344Z,2796
2016-12-03T13:15:51.781Z,1720
2016-12-03T13:17:02.425Z,3576
2016-12-03T13:18:12.864Z,3748
2016-12-03T13:19:23.309Z,3928
2016-12-03T13:20:33.749Z,3768
2016-12-03T13:21:44.221Z,3884
2016-12-03T13:22:54.866Z,3724
2016-12-03T13:24:05.306Z,3764
2016-12-03T13:25:30.292Z,3852
2016-12-03T13:26:40.730Z,1816
2016-12-03T13:27:51.371Z,2708
2016-12-03T13:29:01.815Z,4020
2016-12-03T13:30:12.256Z,3628
2016-12-03T13:31:37.248Z,3464
2016-12-03T13:32:47.689Z,3676
2016-12-03T13:33:58.327Z,3748
2016-12-03T13:35:08.765Z,3608
2016-12-03T13:36:19.210Z,3448
2016-12-03T13:37:29.650Z,3140
2016-12-03T13:38:40.290Z,3532
2016-12-03T13:39:50.736Z,3528
2016-12-03T13:41:01.181Z,3092
2016-12-03T13:42:11.618Z,3304
2016-12-03T13:43:22.060Z,3496
2016-12-03T13:44:32.498Z,3600
2016-12-03T13:45:42.940Z,3764
2016-12-03T13:46:53.384Z,3776
2016-12-03T13:48:03.822Z,3948
2016-12-03T13:49:14.265Z,3872
2016-12-03T13:50:24.978Z,3824
2016-12-03T13:51:35.517Z,2860
2016-12-03T13:52:46.050Z,3584
2016-12-03T13:53:56.583Z,3708
2016-12-03T13:55:07.116Z,3748
2016-12-03T13:56:17.853Z,3356
2016-12-03T13:57:42.914Z,3460
2016-12-03T13:58:53.448Z,3232
2016-12-03T14:00:04.479Z,3376
2016-12-03T14:01:15.013Z,3288
2016-12-03T14:02:25.549Z,3516
2016-12-03T14:03:36.087Z,3660
2016-12-03T14:04:46.625Z,3672
2016-12-03T14:05:57.665Z,3312
2016-12-03T14:07:08.204Z,3292
2016-12-03T14:08:18.740Z,3376
2016-12-03T14:09:43.803Z,3428
2016-12-03T14:10:54.338Z,3156
2016-12-03T14:12:04.871Z,3420
2016-12-03T14:13:15.412Z,3364
2016-12-03T14:14:25.949Z,3308
2016-12-03T14:15:36.479Z,3304
2016-12-03T14:16:47.014Z,3276
2016-12-03T14:17:57.747Z,3260
2016-12-03T14:19:08.203Z,3388
2016-12-03T14:20:18.621Z,3424
2016-12-03T14:21:29.039Z,3620
2016-12-03T14:22:39.451Z,2608
2016-12-03T14:23:50.072Z,3904
2016-12-03T14:25:00.488Z,2204
2016-12-03T14:26:10.902Z,2400
2016-12-03T14:27:21.314Z,2664
2016-12-03T14:28:31.737Z,2596
2016-12-03T14:29:42.187Z,2808
2016-12-03T14:30:53.087Z,2960
2016-12-03T14:32:03.502Z,3144
2016-12-03T14:33:13.919Z,2704
2016-12-03T14:34:24.333Z,2804
2016-12-03T14:35:34.948Z,3492
2016-12-03T14:36:45.366Z,3248
2016-12-03T14:37:55.783Z,2388
2016-12-03T14:39:06.198Z,3188
2016-12-03T14:40:16.626Z,1988
2016-12-03T14:41:27.238Z,1500
2016-12-03T14:42:37.648Z,1924
2016-12-03T14:43:48.065Z,2252
2016-12-03T14:44:58.518Z,1864
2016-12-03T14:46:08.934Z,3776
2016-12-03T14:47:19.353Z,3560
2016-12-03T14:48:29.769Z,3436
2016-12-03T14:49:40.185Z,3220
2016-12-03T14:50:50.605Z,2208
2016-12-03T14:52:01.025Z,2484
2016-12-03T14:53:11.438Z,2864
2016-12-03T14:54:21.850Z,2276
2016-12-03T14:55:32.267Z,2832
2016-12-03T14:56:42.677Z,3028
2016-12-03T14:57:53.092Z,2156
2016-12-03T14:59:03.711Z,2752
2016-12-03T15:00:14.148Z,3160
2016-12-03T15:02:49.539Z,2472
2016-12-03T15:03:59.953Z,2408
2016-12-03T15:05:10.377Z,2076
2016-12-03T15:06:20.793Z,1996
2016-12-03T15:07:31.209Z,1984
2016-12-03T15:08:41.621Z,1988
2016-12-03T15:09:52.037Z,2000
2016-12-03T15:11:02.451Z,1780
2016-12-03T15:12:12.864Z,2024
2016-12-03T15:13:23.278Z,2188
2016-12-03T15:14:33.692Z,2480
2016-12-03T15:15:44.312Z,2320
2016-12-03T15:16:54.730Z,2140
2016-12-03T15:18:05.151Z,2136
2016-12-03T15:19:15.571Z,3116
2016-12-03T15:20:25.912Z,3384
2016-12-03T15:21:36.454Z,2004
2016-12-03T15:22:47.257Z,1852
2016-12-03T15:23:57.579Z,1852
2016-12-03T15:25:07.909Z,2120
2016-12-03T15:26:18.712Z,1760
2016-12-03T15:27:43.609Z,1892
2016-12-03T15:28:54.011Z,1948
2016-12-03T15:30:04.467Z,1884
2016-12-03T15:31:14.914Z,1724
2016-12-03T15:32:25.355Z,2420
2016-12-03T15:33:35.998Z,3764
2016-12-03T15:34:46.442Z,2996
2016-12-03T15:35:56.888Z,3240
2016-12-03T15:37:07.357Z,2588
2016-12-03T15:38:17.803Z,2252
2016-12-03T15:39:28.271Z,2568
2016-12-03T15:40:38.712Z,2212
2016-12-03T15:41:49.159Z,1560
2016-12-03T15:42:59.600Z,1776
2016-12-03T15:44:10.040Z,1532
2016-12-03T15:45:20.479Z,1248
2016-12-03T15:46:30.926Z,1592
2016-12-03T15:47:41.364Z,1708
2016-12-03T15:48:51.804Z,2944
2016-12-03T15:50:17.479Z,2076
2016-12-03T15:51:27.918Z,2024
2016-12-03T15:52:38.358Z,1720
2016-12-03T15:53:48.798Z,2072
2016-12-03T15:54:59.245Z,1840
2016-12-03T15:56:09.891Z,1716
2016-12-03T15:58:45.328Z,1548
2016-12-03T16:00:10.340Z,1776
2016-12-03T16:01:20.977Z,1924
2016-12-03T16:02:31.418Z,1532
2016-12-03T16:03:41.856Z,2144
2016-12-03T16:04:52.325Z,2072
2016-12-03T16:06:02.776Z,1280
2016-12-03T16:07:13.916Z,1452
2016-12-03T16:08:24.365Z,1292
2016-12-03T16:09:35.300Z,1652
2016-12-03T16:10:45.753Z,1956
2016-12-03T16:11:56.195Z,2132
2016-12-03T16:14:31.833Z,2880
2016-12-03T16:15:42.291Z,1556
2016-12-03T16:16:52.740Z,2392
2016-12-03T16:18:03.388Z,2072
2016-12-03T16:19:13.843Z,1860
2016-12-03T16:20:24.287Z,1416
2016-12-03T16:21:34.732Z,2480
2016-12-03T16:22:45.174Z,2644
2016-12-03T16:24:10.172Z,2320
2016-12-03T16:25:20.623Z,2368
2016-12-03T16:26:31.068Z,1368
2016-12-03T16:27:41.510Z,1196
2016-12-03T16:28:52.157Z,1316
2016-12-03T16:30:02.602Z,1800
2016-12-03T16:31:13.052Z,2016
2016-12-03T16:32:23.541Z,2360
2016-12-03T16:33:33.992Z,2176
2016-12-03T16:34:44.641Z,1784
2016-12-03T16:35:55.096Z,1520
2016-12-03T16:37:06.034Z,1560
2016-12-03T16:38:16.402Z,1508
2016-12-03T16:39:26.755Z,1428
2016-12-03T16:40:51.664Z,1768
2016-12-03T16:42:02.007Z,2100
2016-12-03T16:43:12.355Z,2048
2016-12-03T16:44:23.162Z,2300
2016-12-03T16:45:33.688Z,2232
2016-12-03T16:46:44.025Z,2384
2016-12-03T16:47:54.365Z,2536
2016-12-03T16:49:19.329Z,2220